Terminal Aerodrome Forecast
Issued by NWS Louisville, KY

Home | Current Version | Previous Version | Text Only | Print | Product List | Glossary On
Versions: 1 2 3 4 5 6 7 8 9 10 11 12 13 14 15 16 17 18 19 20 21 22
000
FTUS43 KLMK 260300 AAA
TAFSDF
TAF AMD
KSDF 260301Z 2603/2706 35008KT 4SM -RA BR SCT012 BKN022
      TEMPO 2605/2606 3SM -RASN BR BKN012
     FM260600 33014G21KT 3SM -SN BR BKN009
     FM261000 33012G18KT 6SM BR BKN009
     FM261500 30010KT P6SM BKN015
     FM262200 30006KT P6SM SCT025 BKN060=

USA.gov is the U.S. government's official web portal to all federal, state and local government web resources and services.